那覇空港の過去48時間の天気

那覇空港 (Naha)

現在時刻: 10/24 12:10 JST (10/24 03:10 UTC) 以下の時間は現地時間です。

過去48時間のMETAR気象情報
時間 風向 風速(m/s) 視程 気温(℃) 湿度(%) 気圧(hPa) 天気現象
24 11:30 西北西 8 10km以上 27 66 1012
24 11:00 西北西 8 10km以上 27 66 1012
24 10:30 北西 8 10km以上 27 66 1012
24 10:00 西北西 8 10km以上 26 70 1013
24 09:30 西北西 6 10km以上 26 70 1013
24 09:00 西北西 7 10km以上 26 65 1013
24 08:30 西北西 7 10km以上 25 65 1013
24 08:00 西北西 6 10km以上 25 69 1012
24 07:30 西北西 7 10km以上 25 65 1012
24 07:00 西北西 6 10km以上 24 65 1011
24 06:30 西北西 7 10km以上 24 65 1011
24 06:00 西北西 7 10km以上 24 69 1011
24 05:30 西北西 7 10km以上 24 74 1011
24 05:00 西北西 7 10km以上 24 69 1011
24 04:30 西北西 7 10km以上 24 69 1011
24 04:00 西北西 7 10km以上 24 69 1011
24 03:30 西北西 8 10km以上 25 69 1011
24 03:00 西北西 8 10km以上 25 65 1011
24 02:30 西北西 8 10km以上 25 69 1011
24 02:00 西北西 8 10km以上 25 69 1011
24 01:00 西 6 10km以上 25 65 1011
24 00:30 西 6 10km以上 25 65 1011
24 00:00 西北西 6 10km以上 25 65 1011
23 23:30 西 6 10km以上 25 69 1012
23 23:00 西北西 4 10km以上 25 74 1012
23 22:30 北西 5 10km以上 25 74 1012
23 22:00 北西 5 10km以上 25 69 1012
23 21:30 北西 6 10km以上 25 74 1012
23 21:00 北西 6 10km以上 25 74 1012
23 20:30 北西 6 10km以上 25 74 1012
23 20:00 北西 6 10km以上 25 74 1011
23 19:30 北西 6 10km以上 25 74 1011
23 19:00 北西 6 10km以上 25 74 1011
23 18:30 北西 7 10km以上 25 78 1010
23 18:00 西北西 6 10km以上 26 74 1010
23 17:30 西北西 6 10km以上 26 70 1010
23 17:00 西北西 7 10km以上 26 70 1010
23 16:30 西北西 7 10km以上 27 66 1010
23 16:00 西北西 7 10km以上 27 70 1009
23 15:30 西北西 7 10km以上 27 70 1009
23 15:00 西北西 7 10km以上 27 74 1009
23 14:30 西北西 7 10km以上 28 70 1009
23 14:00 西北西 6 10km以上 28 70 1009
23 13:30 西北西 6 10km以上 28 74 1009
23 13:00 西南西 5 10km以上 28 70 1009
23 12:30 西 5 10km以上 27 79 1010
23 12:00 南西 6 10km以上 29 70 1010
23 11:30 南南西 5 10km以上 28 74 1010
23 11:00 南南西 5 10km以上 28 74 1011
23 10:30 南南西 5 10km以上 28 74 1011
23 10:00 南南西 5 10km以上 28 70 1011
23 09:30 南南西 5 10km以上 28 70 1011
23 09:00 南南西 5 10km以上 27 74 1011
23 08:30 南南西 4 10km以上 27 74 1011
23 08:00 南南西 5 10km以上 26 79 1010
23 07:30 南南西 5 10km以上 26 74 1010
23 07:00 南南西 5 10km以上 25 78 1010
23 06:30 南南西 4 10km以上 25 78 1009
23 06:00 南南西 5 10km以上 25 83 1009
23 05:30 南南東 3 10km以上 24 83 1009
23 05:00 南南東 3 10km以上 23 94 1008
23 04:30 南東 3 10km以上 24 89 1009
23 04:00 南東 3 10km以上 24 89 1009
23 03:30 南東 2 10km以上 24 89 1009
ROAH 240230Z 30016KT 9999 FEW028 BKN140 27/20 Q1012 RMK 2CU028 5AC140 A2990
ROAH 240200Z 30015KT 9999 FEW028 SCT160 27/20 Q1012 RMK 1CU028 3AC160 A2990
ROAH 240130Z 31015KT 9999 FEW026 SCT130 27/20 Q1012 RMK 2CU026 3AC130 A2991
ROAH 240100Z 29015KT 9999 FEW027 SCT040 26/20 Q1013 RMK 2CU027 3SC040 A2992
ROAH 240030Z 29012KT 9999 FEW028 SCT/// 26/20 Q1013
ROAH 240000Z 29013KT 9999 FEW031 SCT/// 26/19 Q1013
ROAH 232330Z 29014KT 9999 FEW030 SCT/// 25/18 Q1013
ROAH 232300Z 29012KT 9999 FEW030 BKN/// 25/19 Q1012 RMK 1CU030 A2990
ROAH 232230Z 29014KT 9999 FEW032 BKN/// 25/18 Q1012
ROAH 232200Z 29012KT 9999 FEW030 BKN/// 24/17 Q1011 RMK 1CU030 A2988
ROAH 232130Z 29014KT 9999 FEW030 BKN/// 24/17 Q1011 RMK 1CU030 A2987
ROAH 232100Z 29013KT 9999 FEW030 BKN/// 24/18 Q1011 RMK 2CU030 A2987
ROAH 232030Z 29014KT 9999 FEW030 24/19 Q1011 RMK 2CU030 A2986
ROAH 232000Z 30013KT 9999 FEW030 24/18 Q1011 RMK 2CU030 A2985
ROAH 231930Z 29014KT 9999 FEW027 24/18 Q1011 RMK 2CU027 A2985
ROAH 231900Z 29014KT 9999 FEW030 24/18 Q1011 RMK 2CU030 A2986
ROAH 231830Z 29015KT 9999 FEW030 25/19 Q1011 RMK 2CU030 A2985
ROAH 231800Z 29015KT 9999 FEW026 25/18 Q1011 RMK 2CU026 A2985
ROAH 231730Z 30015KT 9999 SCT026 25/19 Q1011 RMK 3CU026 A2986
ROAH 231700Z 30015KT 9999 SCT026 25/19 Q1011 RMK 3CU026 A2986
ROAH 231600Z 28011KT 9999 FEW030 25/18 Q1011 RMK 1CU030 A2987
ROAH 231530Z 28012KT 9999 FEW030 25/18 Q1011 RMK 1CU030 A2987
ROAH 231500Z 29012KT 9999 FEW030 25/18 Q1011 RMK 2CU030 A2988
ROAH 231430Z 28012KT 9999 SCT025 25/19 Q1012 RMK 4CU025 A2988
ROAH 231400Z 29008KT 9999 SCT025 25/20 Q1012 RMK 3CU025 A2988
ROAH 231330Z 31010KT 9999 FEW025 25/20 Q1012 RMK 2CU025 A2988
ROAH 231300Z 32009KT 9999 FEW025 25/19 Q1012 RMK 2CU025 A2988
ROAH 231230Z 32011KT 9999 FEW025 25/20 Q1012 RMK 1CU025 A2989
ROAH 231200Z 32012KT 9999 FEW025 SCT040 25/20 Q1012 RMK 1CU025 3SC040 A2989
ROAH 231130Z 31011KT 9999 SCT025 25/20 Q1012 RMK 3CU025 A2988
ROAH 231100Z 32012KT 9999 FEW025 25/20 Q1011 RMK 2CU025 A2988
ROAH 231030Z 31011KT 9999 FEW025 25/20 Q1011 RMK 2CU025 A2987
ROAH 231000Z 31012KT 280V340 9999 FEW024 25/20 Q1011 RMK 1CU024 A2986
ROAH 230930Z 31013KT 9999 FEW022 25/21 Q1010 RMK 2CU022 A2985
ROAH 230900Z 30012KT 9999 SCT025 26/21 Q1010 RMK 3CU025 A2984
ROAH 230830Z 30012KT 9999 FEW025 SCT070 26/20 Q1010 RMK 1CU025 3AC070 A2984
ROAH 230800Z 29013KT 9999 FEW025 26/20 Q1010 RMK 1CU025 A2983
ROAH 230730Z 30014KT 9999 FEW025 27/20 Q1010 RMK 1CU025 A2982
ROAH 230700Z 29014KT 9999 FEW020 27/21 Q1009 RMK 1CU020 A2982
ROAH 230630Z 29014KT 9999 FEW020 27/21 Q1009 RMK 2CU020 A2982
ROAH 230600Z 30013KT 9999 FEW020 SCT050 27/22 Q1009 RMK 2CU020 3SC050 A2982
ROAH 230530Z 29013KT 9999 FEW020 28/22 Q1009 RMK 2CU020 A2981
ROAH 230500Z 29011KT 9999 FEW020 28/22 Q1009 RMK 2CU020 A2981
ROAH 230430Z 30011KT 9999 SCT020 28/23 Q1009 RMK 3CU020 A2982
ROAH 230400Z 25010KT 9999 FEW020 28/22 Q1009 RMK 2CU020 A2982
ROAH 230330Z 27010KT 9999 BKN020 27/23 Q1010 RMK 5CU020 A2983
ROAH 230300Z 22011KT 9999 SCT020 29/23 Q1010 RMK 4CU020 A2984
ROAH 230230Z 21010KT 9999 SCT020 28/23 Q1010 RMK 3CU020 A2984
ROAH 230200Z 21010KT 9999 FEW020 28/23 Q1011 RMK 2CU020 A2985
ROAH 230130Z 20009KT 9999 SCT020 28/23 Q1011 RMK 3CU020 A2986
ROAH 230100Z 21010KT 9999 FEW020 28/22 Q1011 RMK 1CU020 A2986
ROAH 230030Z 20009KT 9999 FEW020 28/22 Q1011 RMK 1CU020 A2987
ROAH 230000Z 20009KT 9999 FEW020 BKN100 27/22 Q1011 RMK 1CU020 5AC100 A2986
ROAH 222330Z 20008KT 9999 FEW020 27/22 Q1011 RMK 1CU020 A2985
ROAH 222300Z 20009KT 9999 FEW020 26/22 Q1010 RMK 1CU020 A2984
ROAH 222230Z 20010KT 9999 FEW020 26/21 Q1010 RMK 1CU020 A2983
ROAH 222200Z 20009KT 9999 FEW020 25/21 Q1010 RMK 1CU020 A2982
ROAH 222130Z 20008KT 9999 FEW020 25/21 Q1009 RMK 1CU020 A2982
ROAH 222100Z 20009KT 9999 FEW018 25/22 Q1009 RMK 1CU018 A2980
ROAH 222030Z 15006KT 9999 FEW018 24/21 Q1009 RMK 1CU018 A2980
ROAH 222000Z 16005KT 9999 FEW018 23/22 Q1008 RMK 1CU018 A2979
ROAH 221930Z 14006KT 9999 FEW018 24/22 Q1009 RMK 1CU018 A2980
ROAH 221900Z 14005KT 9999 FEW017 24/22 Q1009 RMK 1CU017 A2980
ROAH 221830Z 14004KT 9999 FEW017 24/22 Q1009 RMK 1CU017 A2981